sensor_id;sensor_type;location;lat;lon;timestamp;temperature;humidity
14142;DHT22;7151;52.246;4.820;2023-09-12T00:01:05;25.40;78.10
14142;DHT22;7151;52.246;4.820;2023-09-12T00:03:31;25.30;78.00
14142;DHT22;7151;52.246;4.820;2023-09-12T00:05:59;25.30;78.00
14142;DHT22;7151;52.246;4.820;2023-09-12T00:08:25;25.30;78.10
14142;DHT22;7151;52.246;4.820;2023-09-12T00:11:04;25.30;78.10
14142;DHT22;7151;52.246;4.820;2023-09-12T00:13:31;25.20;78.10
14142;DHT22;7151;52.246;4.820;2023-09-12T00:15:57;25.20;78.10
14142;DHT22;7151;52.246;4.820;2023-09-12T00:18:23;25.20;78.10
14142;DHT22;7151;52.246;4.820;2023-09-12T00:20:49;25.20;78.10
14142;DHT22;7151;52.246;4.820;2023-09-12T00:23:15;25.20;78.10
14142;DHT22;7151;52.246;4.820;2023-09-12T00:25:41;25.10;78.00
14142;DHT22;7151;52.246;4.820;2023-09-12T00:28:06;25.10;78.00
14142;DHT22;7151;52.246;4.820;2023-09-12T00:30:32;25.10;78.10
14142;DHT22;7151;52.246;4.820;2023-09-12T00:32:57;25.00;78.00
14142;DHT22;7151;52.246;4.820;2023-09-12T00:35:23;25.00;78.10
14142;DHT22;7151;52.246;4.820;2023-09-12T00:37:48;25.00;78.20
14142;DHT22;7151;52.246;4.820;2023-09-12T00:40:14;25.00;78.30
14142;DHT22;7151;52.246;4.820;2023-09-12T00:42:39;25.00;78.30
14142;DHT22;7151;52.246;4.820;2023-09-12T00:45:06;25.00;78.30
14142;DHT22;7151;52.246;4.820;2023-09-12T00:47:32;25.00;78.40
14142;DHT22;7151;52.246;4.820;2023-09-12T00:49:59;24.90;78.40
14142;DHT22;7151;52.246;4.820;2023-09-12T00:52:26;24.90;78.40
14142;DHT22;7151;52.246;4.820;2023-09-12T00:54:55;24.90;79.10
14142;DHT22;7151;52.246;4.820;2023-09-12T00:57:21;24.80;78.30
14142;DHT22;7151;52.246;4.820;2023-09-12T00:59:48;24.80;78.40
14142;DHT22;7151;52.246;4.820;2023-09-12T01:02:14;24.80;78.40
14142;DHT22;7151;52.246;4.820;2023-09-12T01:04:41;24.80;78.50
14142;DHT22;7151;52.246;4.820;2023-09-12T01:07:07;24.80;78.50
14142;DHT22;7151;52.246;4.820;2023-09-12T01:09:33;24.80;78.60
14142;DHT22;7151;52.246;4.820;2023-09-12T01:12:00;24.80;78.70
14142;DHT22;7151;52.246;4.820;2023-09-12T01:14:31;24.80;78.70
14142;DHT22;7151;52.246;4.820;2023-09-12T01:16:57;24.70;78.60
14142;DHT22;7151;52.246;4.820;2023-09-12T01:19:23;24.70;78.60
14142;DHT22;7151;52.246;4.820;2023-09-12T01:25:08;24.70;78.80
14142;DHT22;7151;52.246;4.820;2023-09-12T01:27:48;24.70;78.70
14142;DHT22;7151;52.246;4.820;2023-09-12T01:30:17;24.60;78.70
14142;DHT22;7151;52.246;4.820;2023-09-12T01:32:44;24.60;78.70
14142;DHT22;7151;52.246;4.820;2023-09-12T01:35:10;24.50;78.70
14142;DHT22;7151;52.246;4.820;2023-09-12T01:37:35;24.60;78.80
14142;DHT22;7151;52.246;4.820;2023-09-12T01:40:02;24.60;78.90
14142;DHT22;7151;52.246;4.820;2023-09-12T01:42:31;24.50;78.90
14142;DHT22;7151;52.246;4.820;2023-09-12T01:45:01;24.50;78.90
14142;DHT22;7151;52.246;4.820;2023-09-12T01:47:28;24.50;78.90
14142;DHT22;7151;52.246;4.820;2023-09-12T01:49:57;24.50;78.90
14142;DHT22;7151;52.246;4.820;2023-09-12T01:52:25;24.50;79.00
14142;DHT22;7151;52.246;4.820;2023-09-12T01:54:52;24.40;79.00
14142;DHT22;7151;52.246;4.820;2023-09-12T01:57:18;24.40;79.20
14142;DHT22;7151;52.246;4.820;2023-09-12T01:59:49;24.40;79.30
14142;DHT22;7151;52.246;4.820;2023-09-12T02:02:16;24.40;79.50
14142;DHT22;7151;52.246;4.820;2023-09-12T02:04:45;24.40;79.60
14142;DHT22;7151;52.246;4.820;2023-09-12T02:07:13;24.40;79.60
14142;DHT22;7151;52.246;4.820;2023-09-12T02:09:38;24.40;79.80
14142;DHT22;7151;52.246;4.820;2023-09-12T02:12:04;24.40;79.90
14142;DHT22;7151;52.246;4.820;2023-09-12T02:14:29;24.40;80.00
14142;DHT22;7151;52.246;4.820;2023-09-12T02:16:55;24.40;80.10
14142;DHT22;7151;52.246;4.820;2023-09-12T02:19:20;24.40;80.00
14142;DHT22;7151;52.246;4.820;2023-09-12T02:21:46;24.40;80.00
14142;DHT22;7151;52.246;4.820;2023-09-12T02:24:11;24.40;80.10
14142;DHT22;7151;52.246;4.820;2023-09-12T02:26:37;24.40;80.10
14142;DHT22;7151;52.246;4.820;2023-09-12T02:29:03;24.40;80.00
14142;DHT22;7151;52.246;4.820;2023-09-12T02:31:31;24.40;80.00
14142;DHT22;7151;52.246;4.820;2023-09-12T02:33:57;24.30;80.00
14142;DHT22;7151;52.246;4.820;2023-09-12T02:36:22;24.30;80.00
14142;DHT22;7151;52.246;4.820;2023-09-12T02:38:48;24.30;80.00
14142;DHT22;7151;52.246;4.820;2023-09-12T02:41:13;24.30;80.00
14142;DHT22;7151;52.246;4.820;2023-09-12T02:43:39;24.30;79.90
14142;DHT22;7151;52.246;4.820;2023-09-12T02:46:04;24.30;79.80
14142;DHT22;7151;52.246;4.820;2023-09-12T02:48:30;24.30;79.70
14142;DHT22;7151;52.246;4.820;2023-09-12T02:50:55;24.20;79.70
14142;DHT22;7151;52.246;4.820;2023-09-12T02:53:21;24.20;79.80
14142;DHT22;7151;52.246;4.820;2023-09-12T02:55:46;24.20;80.00
14142;DHT22;7151;52.246;4.820;2023-09-12T02:58:12;24.20;80.00
14142;DHT22;7151;52.246;4.820;2023-09-12T03:00:39;24.10;80.00
14142;DHT22;7151;52.246;4.820;2023-09-12T03:03:05;24.20;80.20
14142;DHT22;7151;52.246;4.820;2023-09-12T03:05:31;24.20;80.10
14142;DHT22;7151;52.246;4.820;2023-09-12T03:07:56;24.20;80.00
14142;DHT22;7151;52.246;4.820;2023-09-12T03:10:22;24.10;80.00
14142;DHT22;7151;52.246;4.820;2023-09-12T03:12:47;24.10;80.00
14142;DHT22;7151;52.246;4.820;2023-09-12T03:15:13;24.10;80.10
14142;DHT22;7151;52.246;4.820;2023-09-12T03:17:38;24.10;80.20
14142;DHT22;7151;52.246;4.820;2023-09-12T03:20:04;24.10;80.30
14142;DHT22;7151;52.246;4.820;2023-09-12T03:22:34;24.10;80.30
14142;DHT22;7151;52.246;4.820;2023-09-12T03:25:03;24.00;80.20
14142;DHT22;7151;52.246;4.820;2023-09-12T03:27:29;24.10;81.00
14142;DHT22;7151;52.246;4.820;2023-09-12T03:29:54;24.00;80.30
14142;DHT22;7151;52.246;4.820;2023-09-12T03:32:20;24.00;80.30
14142;DHT22;7151;52.246;4.820;2023-09-12T03:34:45;24.00;80.30
14142;DHT22;7151;52.246;4.820;2023-09-12T03:37:11;24.00;80.30
14142;DHT22;7151;52.246;4.820;2023-09-12T03:39:36;24.00;80.30
14142;DHT22;7151;52.246;4.820;2023-09-12T03:42:02;24.00;80.30
14142;DHT22;7151;52.246;4.820;2023-09-12T03:44:27;24.00;80.30
14142;DHT22;7151;52.246;4.820;2023-09-12T03:46:53;24.00;80.40
14142;DHT22;7151;52.246;4.820;2023-09-12T03:49:18;23.90;80.30
14142;DHT22;7151;52.246;4.820;2023-09-12T03:51:44;23.90;80.30
14142;DHT22;7151;52.246;4.820;2023-09-12T03:54:09;23.90;80.40
14142;DHT22;7151;52.246;4.820;2023-09-12T03:56:35;23.90;80.50
14142;DHT22;7151;52.246;4.820;2023-09-12T03:59:00;23.90;80.40
14142;DHT22;7151;52.246;4.820;2023-09-12T04:01:27;23.90;80.50
14142;DHT22;7151;52.246;4.820;2023-09-12T04:03:53;23.90;80.60
14142;DHT22;7151;52.246;4.820;2023-09-12T04:06:19;23.90;80.60
14142;DHT22;7151;52.246;4.820;2023-09-12T04:08:44;23.90;80.80
14142;DHT22;7151;52.246;4.820;2023-09-12T04:11:10;23.90;80.80
14142;DHT22;7151;52.246;4.820;2023-09-12T04:13:36;23.90;80.80
14142;DHT22;7151;52.246;4.820;2023-09-12T04:16:02;23.80;80.70
14142;DHT22;7151;52.246;4.820;2023-09-12T04:18:28;23.80;80.70
14142;DHT22;7151;52.246;4.820;2023-09-12T04:20:53;23.80;81.40
14142;DHT22;7151;52.246;4.820;2023-09-12T04:23:21;23.80;80.80
14142;DHT22;7151;52.246;4.820;2023-09-12T04:25:46;23.80;80.90
14142;DHT22;7151;52.246;4.820;2023-09-12T04:28:12;23.80;80.90
14142;DHT22;7151;52.246;4.820;2023-09-12T04:30:38;23.80;80.90
14142;DHT22;7151;52.246;4.820;2023-09-12T04:33:05;23.80;80.90
14142;DHT22;7151;52.246;4.820;2023-09-12T04:35:33;23.80;80.90
14142;DHT22;7151;52.246;4.820;2023-09-12T04:37:59;23.70;80.80
14142;DHT22;7151;52.246;4.820;2023-09-12T04:40:24;23.70;80.90
14142;DHT22;7151;52.246;4.820;2023-09-12T04:42:50;23.70;80.90
14142;DHT22;7151;52.246;4.820;2023-09-12T04:45:15;23.70;81.00
14142;DHT22;7151;52.246;4.820;2023-09-12T04:47:41;23.70;81.00
14142;DHT22;7151;52.246;4.820;2023-09-12T04:50:07;23.60;81.00
14142;DHT22;7151;52.246;4.820;2023-09-12T04:52:32;23.70;81.20
14142;DHT22;7151;52.246;4.820;2023-09-12T04:54:58;23.70;81.30
14142;DHT22;7151;52.246;4.820;2023-09-12T04:57:23;23.60;81.50
14142;DHT22;7151;52.246;4.820;2023-09-12T04:59:50;23.60;81.60
14142;DHT22;7151;52.246;4.820;2023-09-12T05:02:16;23.60;81.80
14142;DHT22;7151;52.246;4.820;2023-09-12T05:04:42;23.60;81.80
14142;DHT22;7151;52.246;4.820;2023-09-12T05:07:07;23.60;81.90
14142;DHT22;7151;52.246;4.820;2023-09-12T05:09:33;23.70;82.10
14142;DHT22;7151;52.246;4.820;2023-09-12T05:11:58;23.60;82.60
14142;DHT22;7151;52.246;4.820;2023-09-12T05:14:24;23.60;82.20
14142;DHT22;7151;52.246;4.820;2023-09-12T05:16:49;23.60;82.30
14142;DHT22;7151;52.246;4.820;2023-09-12T05:19:15;23.60;82.40
14142;DHT22;7151;52.246;4.820;2023-09-12T05:21:40;23.70;82.60
14142;DHT22;7151;52.246;4.820;2023-09-12T05:24:06;23.70;82.80
14142;DHT22;7151;52.246;4.820;2023-09-12T05:26:32;23.70;82.80
14142;DHT22;7151;52.246;4.820;2023-09-12T05:28:57;23.70;83.00
14142;DHT22;7151;52.246;4.820;2023-09-12T05:31:23;23.70;83.10
14142;DHT22;7151;52.246;4.820;2023-09-12T05:33:48;23.70;83.20
14142;DHT22;7151;52.246;4.820;2023-09-12T05:36:14;23.70;83.20
14142;DHT22;7151;52.246;4.820;2023-09-12T05:38:40;23.70;83.30
14142;DHT22;7151;52.246;4.820;2023-09-12T05:41:06;23.70;83.40
14142;DHT22;7151;52.246;4.820;2023-09-12T05:43:31;23.70;83.40
14142;DHT22;7151;52.246;4.820;2023-09-12T05:45:57;23.70;83.50
14142;DHT22;7151;52.246;4.820;2023-09-12T05:48:23;23.80;83.70
14142;DHT22;7151;52.246;4.820;2023-09-12T05:50:49;23.80;83.70
14142;DHT22;7151;52.246;4.820;2023-09-12T05:53:14;23.80;83.80
14142;DHT22;7151;52.246;4.820;2023-09-12T05:55:40;23.80;83.80
14142;DHT22;7151;52.246;4.820;2023-09-12T05:58:06;23.80;83.90
14142;DHT22;7151;52.246;4.820;2023-09-12T06:00:32;23.80;84.00
14142;DHT22;7151;52.246;4.820;2023-09-12T06:02:58;23.80;84.00
14142;DHT22;7151;52.246;4.820;2023-09-12T06:05:23;23.80;84.00
14142;DHT22;7151;52.246;4.820;2023-09-12T06:07:49;23.80;84.00
14142;DHT22;7151;52.246;4.820;2023-09-12T06:10:14;23.80;84.10
14142;DHT22;7151;52.246;4.820;2023-09-12T06:12:40;23.80;84.10
14142;DHT22;7151;52.246;4.820;2023-09-12T06:15:06;23.80;84.20
14142;DHT22;7151;52.246;4.820;2023-09-12T06:17:31;23.80;84.30
14142;DHT22;7151;52.246;4.820;2023-09-12T06:19:57;23.80;84.40
14142;DHT22;7151;52.246;4.820;2023-09-12T06:22:23;23.80;84.50
14142;DHT22;7151;52.246;4.820;2023-09-12T06:24:50;23.80;84.50
14142;DHT22;7151;52.246;4.820;2023-09-12T06:27:15;23.80;84.60
14142;DHT22;7151;52.246;4.820;2023-09-12T06:29:47;23.80;84.60
14142;DHT22;7151;52.246;4.820;2023-09-12T06:32:17;23.80;84.70
14142;DHT22;7151;52.246;4.820;2023-09-12T06:34:42;23.80;84.70
14142;DHT22;7151;52.246;4.820;2023-09-12T06:37:09;23.80;84.90
14142;DHT22;7151;52.246;4.820;2023-09-12T06:39:34;23.80;84.90
14142;DHT22;7151;52.246;4.820;2023-09-12T06:42:00;23.80;85.00
14142;DHT22;7151;52.246;4.820;2023-09-12T06:44:25;23.80;85.20
14142;DHT22;7151;52.246;4.820;2023-09-12T06:46:51;23.80;85.30
14142;DHT22;7151;52.246;4.820;2023-09-12T06:49:16;23.80;85.30
14142;DHT22;7151;52.246;4.820;2023-09-12T06:51:42;23.80;85.40
14142;DHT22;7151;52.246;4.820;2023-09-12T06:54:07;23.80;85.50
14142;DHT22;7151;52.246;4.820;2023-09-12T06:56:33;23.80;85.50
14142;DHT22;7151;52.246;4.820;2023-09-12T06:59:03;23.80;85.60
14142;DHT22;7151;52.246;4.820;2023-09-12T07:01:29;23.80;85.80
14142;DHT22;7151;52.246;4.820;2023-09-12T07:03:55;23.80;85.90
14142;DHT22;7151;52.246;4.820;2023-09-12T07:06:21;23.80;85.90
14142;DHT22;7151;52.246;4.820;2023-09-12T07:08:47;23.90;86.10
14142;DHT22;7151;52.246;4.820;2023-09-12T07:11:12;23.90;86.20
14142;DHT22;7151;52.246;4.820;2023-09-12T07:13:38;23.90;86.20
14142;DHT22;7151;52.246;4.820;2023-09-12T07:16:04;23.90;86.30
14142;DHT22;7151;52.246;4.820;2023-09-12T07:18:30;23.90;86.40
14142;DHT22;7151;52.246;4.820;2023-09-12T07:20:59;23.90;86.50
14142;DHT22;7151;52.246;4.820;2023-09-12T07:23:25;24.00;86.80
14142;DHT22;7151;52.246;4.820;2023-09-12T07:25:50;24.00;87.00
14142;DHT22;7151;52.246;4.820;2023-09-12T07:28:16;24.00;87.00
14142;DHT22;7151;52.246;4.820;2023-09-12T07:30:41;24.00;87.10
14142;DHT22;7151;52.246;4.820;2023-09-12T07:33:10;24.00;87.20
14142;DHT22;7151;52.246;4.820;2023-09-12T07:35:35;24.10;87.20
14142;DHT22;7151;52.246;4.820;2023-09-12T07:38:01;24.10;87.20
14142;DHT22;7151;52.246;4.820;2023-09-12T07:40:27;24.10;87.20
14142;DHT22;7151;52.246;4.820;2023-09-12T07:42:54;24.10;87.10
14142;DHT22;7151;52.246;4.820;2023-09-12T07:45:20;24.10;87.10
14142;DHT22;7151;52.246;4.820;2023-09-12T07:47:46;24.10;87.10
14142;DHT22;7151;52.246;4.820;2023-09-12T07:50:11;24.20;87.30
14142;DHT22;7151;52.246;4.820;2023-09-12T07:52:37;24.20;87.40
14142;DHT22;7151;52.246;4.820;2023-09-12T07:55:03;24.20;87.50
14142;DHT22;7151;52.246;4.820;2023-09-12T07:57:29;24.20;88.20
14142;DHT22;7151;52.246;4.820;2023-09-12T07:59:56;24.30;87.70
14142;DHT22;7151;52.246;4.820;2023-09-12T08:02:21;24.30;87.70
14142;DHT22;7151;52.246;4.820;2023-09-12T08:04:49;24.30;87.60
14142;DHT22;7151;52.246;4.820;2023-09-12T08:07:21;24.40;87.70
14142;DHT22;7151;52.246;4.820;2023-09-12T08:12:16;24.40;87.70
14142;DHT22;7151;52.246;4.820;2023-09-12T08:14:41;24.40;87.60
14142;DHT22;7151;52.246;4.820;2023-09-12T08:17:07;24.40;87.60
14142;DHT22;7151;52.246;4.820;2023-09-12T08:19:33;24.50;87.60
14142;DHT22;7151;52.246;4.820;2023-09-12T08:21:58;24.50;87.70
14142;DHT22;7151;52.246;4.820;2023-09-12T08:24:24;24.50;87.70
14142;DHT22;7151;52.246;4.820;2023-09-12T08:26:49;24.50;87.70
14142;DHT22;7151;52.246;4.820;2023-09-12T08:29:15;24.50;87.70
14142;DHT22;7151;52.246;4.820;2023-09-12T08:31:41;24.60;87.70
14142;DHT22;7151;52.246;4.820;2023-09-12T08:34:06;24.60;87.70
14142;DHT22;7151;52.246;4.820;2023-09-12T08:36:32;24.60;87.80
14142;DHT22;7151;52.246;4.820;2023-09-12T08:38:58;24.60;87.80
14142;DHT22;7151;52.246;4.820;2023-09-12T08:41:26;24.60;87.80
14142;DHT22;7151;52.246;4.820;2023-09-12T08:43:51;24.70;87.80
14142;DHT22;7151;52.246;4.820;2023-09-12T08:46:17;24.70;87.70
14142;DHT22;7151;52.246;4.820;2023-09-12T08:48:45;24.80;87.70
14142;DHT22;7151;52.246;4.820;2023-09-12T08:51:11;24.80;87.60
14142;DHT22;7151;52.246;4.820;2023-09-12T08:53:37;24.80;87.50
14142;DHT22;7151;52.246;4.820;2023-09-12T08:56:04;24.90;87.60
14142;DHT22;7151;52.246;4.820;2023-09-12T08:58:32;24.90;87.70
14142;DHT22;7151;52.246;4.820;2023-09-12T09:00:58;24.90;87.70
14142;DHT22;7151;52.246;4.820;2023-09-12T09:03:24;25.00;87.60
14142;DHT22;7151;52.246;4.820;2023-09-12T09:05:51;25.00;87.50
14142;DHT22;7151;52.246;4.820;2023-09-12T09:08:17;25.00;87.40
14142;DHT22;7151;52.246;4.820;2023-09-12T09:11:00;25.10;87.30
14142;DHT22;7151;52.246;4.820;2023-09-12T09:13:29;25.10;87.20
14142;DHT22;7151;52.246;4.820;2023-09-12T09:16:14;25.10;87.20
14142;DHT22;7151;52.246;4.820;2023-09-12T09:19:00;25.10;87.10
14142;DHT22;7151;52.246;4.820;2023-09-12T09:21:28;25.20;87.10
14142;DHT22;7151;52.246;4.820;2023-09-12T09:23:55;25.20;87.00
14142;DHT22;7151;52.246;4.820;2023-09-12T09:26:21;25.20;86.60
14142;DHT22;7151;52.246;4.820;2023-09-12T09:29:06;25.20;86.40
14142;DHT22;7151;52.246;4.820;2023-09-12T09:31:32;25.30;86.50
14142;DHT22;7151;52.246;4.820;2023-09-12T09:33:59;25.20;86.50
14142;DHT22;7151;52.246;4.820;2023-09-12T09:36:25;25.30;86.60
14142;DHT22;7151;52.246;4.820;2023-09-12T09:38:51;25.30;86.80
14142;DHT22;7151;52.246;4.820;2023-09-12T09:41:20;25.30;86.80
14142;DHT22;7151;52.246;4.820;2023-09-12T09:43:50;25.40;87.00
14142;DHT22;7151;52.246;4.820;2023-09-12T09:46:16;25.40;87.00
14142;DHT22;7151;52.246;4.820;2023-09-12T09:48:49;25.40;86.80
14142;DHT22;7151;52.246;4.820;2023-09-12T09:51:14;25.50;86.50
14142;DHT22;7151;52.246;4.820;2023-09-12T09:53:40;25.50;86.40
14142;DHT22;7151;52.246;4.820;2023-09-12T09:56:13;25.50;86.40
14142;DHT22;7151;52.246;4.820;2023-09-12T09:58:59;25.60;86.40
14142;DHT22;7151;52.246;4.820;2023-09-12T10:01:29;25.70;86.50
14142;DHT22;7151;52.246;4.820;2023-09-12T10:04:00;25.70;86.20
14142;DHT22;7151;52.246;4.820;2023-09-12T10:06:27;25.80;86.00
14142;DHT22;7151;52.246;4.820;2023-09-12T10:08:54;25.90;86.10
14142;DHT22;7151;52.246;4.820;2023-09-12T10:11:26;25.90;85.80
14142;DHT22;7151;52.246;4.820;2023-09-12T10:13:55;26.00;85.50
14142;DHT22;7151;52.246;4.820;2023-09-12T10:16:33;26.00;85.20
14142;DHT22;7151;52.246;4.820;2023-09-12T10:19:13;26.00;84.90
14142;DHT22;7151;52.246;4.820;2023-09-12T10:24:35;26.10;84.90
14142;DHT22;7151;52.246;4.820;2023-09-12T10:27:01;26.20;84.90
14142;DHT22;7151;52.246;4.820;2023-09-12T10:29:27;26.20;84.80
14142;DHT22;7151;52.246;4.820;2023-09-12T10:31:53;26.30;84.70
14142;DHT22;7151;52.246;4.820;2023-09-12T10:34:20;26.30;84.50
14142;DHT22;7151;52.246;4.820;2023-09-12T10:36:47;26.30;84.30
14142;DHT22;7151;52.246;4.820;2023-09-12T10:39:14;26.30;84.00
14142;DHT22;7151;52.246;4.820;2023-09-12T10:41:41;26.30;83.40
14142;DHT22;7151;52.246;4.820;2023-09-12T10:44:16;26.30;83.10
14142;DHT22;7151;52.246;4.820;2023-09-12T10:46:44;26.30;83.10
14142;DHT22;7151;52.246;4.820;2023-09-12T10:49:12;26.30;83.10
14142;DHT22;7151;52.246;4.820;2023-09-12T10:51:43;26.30;83.00
14142;DHT22;7151;52.246;4.820;2023-09-12T10:54:13;26.30;82.80
14142;DHT22;7151;52.246;4.820;2023-09-12T10:56:39;26.40;83.00
14142;DHT22;7151;52.246;4.820;2023-09-12T11:01:32;26.40;83.10
14142;DHT22;7151;52.246;4.820;2023-09-12T11:03:58;26.50;83.10
14142;DHT22;7151;52.246;4.820;2023-09-12T11:06:29;26.50;82.90
14142;DHT22;7151;52.246;4.820;2023-09-12T11:11:43;26.50;82.40
14142;DHT22;7151;52.246;4.820;2023-09-12T11:14:09;26.50;82.50
14142;DHT22;7151;52.246;4.820;2023-09-12T11:16:35;26.50;82.30
14142;DHT22;7151;52.246;4.820;2023-09-12T11:19:20;26.50;82.20
14142;DHT22;7151;52.246;4.820;2023-09-12T11:21:53;26.50;81.80
14142;DHT22;7151;52.246;4.820;2023-09-12T11:24:20;26.50;81.70
14142;DHT22;7151;52.246;4.820;2023-09-12T11:29:30;26.50;81.90
14142;DHT22;7151;52.246;4.820;2023-09-12T11:32:00;26.50;81.80
14142;DHT22;7151;52.246;4.820;2023-09-12T11:34:28;26.50;81.70
14142;DHT22;7151;52.246;4.820;2023-09-12T11:36:56;26.50;81.50
14142;DHT22;7151;52.246;4.820;2023-09-12T11:39:28;26.50;81.50
14142;DHT22;7151;52.246;4.820;2023-09-12T11:41:56;26.40;81.50
14142;DHT22;7151;52.246;4.820;2023-09-12T11:44:22;26.40;81.60
14142;DHT22;7151;52.246;4.820;2023-09-12T11:46:49;26.40;82.30
14142;DHT22;7151;52.246;4.820;2023-09-12T11:49:15;26.40;81.50
14142;DHT22;7151;52.246;4.820;2023-09-12T11:51:52;26.40;81.50
14142;DHT22;7151;52.246;4.820;2023-09-12T11:54:25;26.40;81.50
14142;DHT22;7151;52.246;4.820;2023-09-12T11:56:51;26.40;81.70
14142;DHT22;7151;52.246;4.820;2023-09-12T11:59:23;26.40;81.80
14142;DHT22;7151;52.246;4.820;2023-09-12T12:01:48;26.40;81.80
14142;DHT22;7151;52.246;4.820;2023-09-12T12:04:14;26.40;81.90
14142;DHT22;7151;52.246;4.820;2023-09-12T12:06:40;26.40;82.00
14142;DHT22;7151;52.246;4.820;2023-09-12T12:09:06;26.40;82.10
14142;DHT22;7151;52.246;4.820;2023-09-12T12:11:33;26.40;82.30
14142;DHT22;7151;52.246;4.820;2023-09-12T12:14:17;26.40;82.40
14142;DHT22;7151;52.246;4.820;2023-09-12T12:16:45;26.30;82.10
14142;DHT22;7151;52.246;4.820;2023-09-12T12:19:12;26.30;82.10
14142;DHT22;7151;52.246;4.820;2023-09-12T12:21:42;26.30;82.40
14142;DHT22;7151;52.246;4.820;2023-09-12T12:24:11;26.30;82.50
14142;DHT22;7151;52.246;4.820;2023-09-12T12:26:37;26.30;82.50
14142;DHT22;7151;52.246;4.820;2023-09-12T12:29:05;26.30;82.50
14142;DHT22;7151;52.246;4.820;2023-09-12T12:31:31;26.30;82.50
14142;DHT22;7151;52.246;4.820;2023-09-12T12:33:57;26.30;82.50
14142;DHT22;7151;52.246;4.820;2023-09-12T12:36:23;26.30;82.60
14142;DHT22;7151;52.246;4.820;2023-09-12T12:38:50;26.30;82.70
14142;DHT22;7151;52.246;4.820;2023-09-12T12:41:21;26.30;82.70
14142;DHT22;7151;52.246;4.820;2023-09-12T12:43:50;26.20;82.60
14142;DHT22;7151;52.246;4.820;2023-09-12T12:46:20;26.20;82.50
14142;DHT22;7151;52.246;4.820;2023-09-12T12:48:47;26.20;82.30
14142;DHT22;7151;52.246;4.820;2023-09-12T12:53:52;26.10;81.60
14142;DHT22;7151;52.246;4.820;2023-09-12T12:56:21;26.00;81.40
14142;DHT22;7151;52.246;4.820;2023-09-12T12:58:51;26.00;81.40
14142;DHT22;7151;52.246;4.820;2023-09-12T13:01:17;26.00;81.40
14142;DHT22;7151;52.246;4.820;2023-09-12T13:03:43;25.90;81.50
14142;DHT22;7151;52.246;4.820;2023-09-12T13:06:10;25.90;81.60
14142;DHT22;7151;52.246;4.820;2023-09-12T13:08:43;25.90;81.60
14142;DHT22;7151;52.246;4.820;2023-09-12T13:11:10;25.90;81.50
14142;DHT22;7151;52.246;4.820;2023-09-12T13:13:37;25.80;81.50
14142;DHT22;7151;52.246;4.820;2023-09-12T13:16:07;25.80;81.60
14142;DHT22;7151;52.246;4.820;2023-09-12T13:18:35;25.80;81.60
14142;DHT22;7151;52.246;4.820;2023-09-12T13:21:01;25.80;81.80
14142;DHT22;7151;52.246;4.820;2023-09-12T13:23:27;25.80;81.90
14142;DHT22;7151;52.246;4.820;2023-09-12T13:25:53;25.80;82.00
14142;DHT22;7151;52.246;4.820;2023-09-12T13:28:19;25.80;82.10
14142;DHT22;7151;52.246;4.820;2023-09-12T13:30:45;25.80;82.20
14142;DHT22;7151;52.246;4.820;2023-09-12T13:33:11;25.80;82.40
14142;DHT22;7151;52.246;4.820;2023-09-12T13:35:37;25.80;82.60
14142;DHT22;7151;52.246;4.820;2023-09-12T13:38:03;25.80;82.80
14142;DHT22;7151;52.246;4.820;2023-09-12T13:40:36;25.80;83.10
14142;DHT22;7151;52.246;4.820;2023-09-12T13:43:03;25.90;83.20
14142;DHT22;7151;52.246;4.820;2023-09-12T13:45:29;25.90;83.10
14142;DHT22;7151;52.246;4.820;2023-09-12T13:47:55;25.90;83.20
14142;DHT22;7151;52.246;4.820;2023-09-12T13:50:21;25.90;83.40
14142;DHT22;7151;52.246;4.820;2023-09-12T13:52:47;26.00;83.90
14142;DHT22;7151;52.246;4.820;2023-09-12T13:55:12;26.00;84.10
14142;DHT22;7151;52.246;4.820;2023-09-12T13:57:39;26.00;84.10
14142;DHT22;7151;52.246;4.820;2023-09-12T14:00:05;26.10;84.10
14142;DHT22;7151;52.246;4.820;2023-09-12T14:02:31;26.10;84.00
14142;DHT22;7151;52.246;4.820;2023-09-12T14:04:57;26.20;84.00
14142;DHT22;7151;52.246;4.820;2023-09-12T14:07:23;26.20;83.80
14142;DHT22;7151;52.246;4.820;2023-09-12T14:09:49;26.30;83.60
14142;DHT22;7151;52.246;4.820;2023-09-12T14:12:15;26.30;83.60
14142;DHT22;7151;52.246;4.820;2023-09-12T14:14:41;26.30;83.60
14142;DHT22;7151;52.246;4.820;2023-09-12T14:17:06;26.30;83.60
14142;DHT22;7151;52.246;4.820;2023-09-12T14:19:32;26.30;83.40
14142;DHT22;7151;52.246;4.820;2023-09-12T14:21:59;26.30;83.40
14142;DHT22;7151;52.246;4.820;2023-09-12T14:24:25;26.40;83.60
14142;DHT22;7151;52.246;4.820;2023-09-12T14:26:50;26.40;83.40
14142;DHT22;7151;52.246;4.820;2023-09-12T14:29:16;26.40;83.10
14142;DHT22;7151;52.246;4.820;2023-09-12T14:31:43;26.40;83.10
14142;DHT22;7151;52.246;4.820;2023-09-12T14:34:15;26.40;83.00
14142;DHT22;7151;52.246;4.820;2023-09-12T14:36:41;26.40;82.90
14142;DHT22;7151;52.246;4.820;2023-09-12T14:39:07;26.40;82.70
14142;DHT22;7151;52.246;4.820;2023-09-12T14:41:33;26.40;82.50
14142;DHT22;7151;52.246;4.820;2023-09-12T14:43:58;26.30;82.30
14142;DHT22;7151;52.246;4.820;2023-09-12T14:46:24;26.30;82.10
14142;DHT22;7151;52.246;4.820;2023-09-12T14:48:49;26.30;82.20
14142;DHT22;7151;52.246;4.820;2023-09-12T14:51:15;26.30;82.00
14142;DHT22;7151;52.246;4.820;2023-09-12T14:53:41;26.30;81.90
14142;DHT22;7151;52.246;4.820;2023-09-12T14:56:10;26.30;81.90
14142;DHT22;7151;52.246;4.820;2023-09-12T14:58:36;26.30;82.80
14142;DHT22;7151;52.246;4.820;2023-09-12T15:01:02;26.30;82.20
14142;DHT22;7151;52.246;4.820;2023-09-12T15:03:27;26.30;82.40
14142;DHT22;7151;52.246;4.820;2023-09-12T15:05:53;26.30;82.50
14142;DHT22;7151;52.246;4.820;2023-09-12T15:08:18;26.30;82.40
14142;DHT22;7151;52.246;4.820;2023-09-12T15:10:44;26.30;82.40
14142;DHT22;7151;52.246;4.820;2023-09-12T15:13:10;26.30;82.20
14142;DHT22;7151;52.246;4.820;2023-09-12T15:15:36;26.30;82.00
14142;DHT22;7151;52.246;4.820;2023-09-12T15:18:02;26.30;81.80
14142;DHT22;7151;52.246;4.820;2023-09-12T15:20:28;26.30;81.80
14142;DHT22;7151;52.246;4.820;2023-09-12T15:22:54;26.30;82.00
14142;DHT22;7151;52.246;4.820;2023-09-12T15:25:19;26.30;82.10
14142;DHT22;7151;52.246;4.820;2023-09-12T15:27:45;26.30;81.90
14142;DHT22;7151;52.246;4.820;2023-09-12T15:30:11;26.30;81.90
14142;DHT22;7151;52.246;4.820;2023-09-12T15:32:37;26.30;81.80
14142;DHT22;7151;52.246;4.820;2023-09-12T15:35:02;26.30;81.80
14142;DHT22;7151;52.246;4.820;2023-09-12T15:37:28;26.30;81.90
14142;DHT22;7151;52.246;4.820;2023-09-12T15:39:54;26.20;81.90
14142;DHT22;7151;52.246;4.820;2023-09-12T15:42:20;26.20;82.10
14142;DHT22;7151;52.246;4.820;2023-09-12T15:44:45;26.20;82.10
14142;DHT22;7151;52.246;4.820;2023-09-12T15:47:11;26.20;82.20
14142;DHT22;7151;52.246;4.820;2023-09-12T15:49:36;26.20;82.20
14142;DHT22;7151;52.246;4.820;2023-09-12T15:52:03;26.20;82.10
14142;DHT22;7151;52.246;4.820;2023-09-12T15:54:28;26.10;82.10
14142;DHT22;7151;52.246;4.820;2023-09-12T15:56:55;26.10;82.10
14142;DHT22;7151;52.246;4.820;2023-09-12T15:59:21;26.10;82.10
14142;DHT22;7151;52.246;4.820;2023-09-12T16:01:47;26.10;82.20